Time;durP1;ratioP1;P1;durP2;ratioP2;P2;SDS_P1;SDS_P2;PMS_P1;PMS_P2;Temp;Humidity;BMP_temperature;BMP_pressure;BME280_temperature;BME280_humidity;BME280_pressure;Samples;Min_cycle;Max_cycle;Signal;HPM_P1;HPM_P2
2022/10/19 00:01:19;;;;;;;0.60;0.17;;;10.70;99.90;;;;;;4916816;29;20048;-85
2022/10/19 00:03:47;;;;;;;0.98;0.38;;;10.90;99.90;;;;;;4932364;29;20500;-85
2022/10/19 00:06:24;;;;;;;1.17;0.10;;;10.90;99.90;;;;;;4916441;29;20051;-88
2022/10/19 00:08:53;;;;;;;0.68;0.20;;;10.70;99.90;;;;;;4932434;29;20079;-86
2022/10/19 00:11:18;;;;;;;1.88;1.10;;;10.70;99.90;;;;;;4932783;29;20126;-85
2022/10/19 00:13:44;;;;;;;0.17;0.10;;;11.30;99.90;;;;;;4932286;29;20203;-85
2022/10/19 00:16:15;;;;;;;0.40;0.10;;;10.80;99.90;;;;;;4932243;29;20095;-87
2022/10/19 00:18:44;;;;;;;1.02;0.30;;;11.20;99.90;;;;;;4932901;29;20499;-85
2022/10/19 00:21:14;;;;;;;1.77;0.20;;;10.80;99.90;;;;;;4931864;29;20055;-86
2022/10/19 00:23:40;;;;;;;1.38;0.30;;;11.60;99.90;;;;;;4932593;29;20044;-86
2022/10/19 00:26:06;;;;;;;0.63;0.20;;;11.10;99.90;;;;;;4931668;29;20164;-85
2022/10/19 00:28:32;;;;;;;1.45;0.10;;;11.30;99.90;;;;;;4932494;29;20051;-86
2022/10/19 00:31:11;;;;;;;0.88;0.10;;;11.00;99.90;;;;;;4915869;29;20049;-87
2022/10/19 00:33:37;;;;;;;2.20;0.20;;;11.10;99.90;;;;;;4931932;29;20497;-85
2022/10/19 00:36:03;;;;;;;0.38;0.10;;;11.90;99.90;;;;;;4966480;28;20471;-86
2022/10/19 00:38:29;;;;;;;0.10;0.05;;;11.00;99.90;;;;;;4973329;28;20031;-85
2022/10/19 00:40:55;;;;;;;0.25;0.20;;;11.00;99.90;;;;;;4973174;28;20051;-88
2022/10/19 00:43:24;;;;;;;1.55;0.20;;;11.00;99.90;;;;;;4972747;28;20038;-86
2022/10/19 00:45:50;;;;;;;1.55;0.10;;;11.10;99.90;;;;;;4973515;28;20074;-86
2022/10/19 00:48:21;;;;;;;0.98;0.20;;;11.10;99.90;;;;;;4975092;28;20458;-86
2022/10/19 00:50:48;;;;;;;4.35;0.20;;;11.10;99.90;;;;;;4976747;28;20488;-86
2022/10/19 00:53:14;;;;;;;1.92;0.20;;;11.20;99.90;;;;;;4959190;28;20130;-87
2022/10/19 00:55:40;;;;;;;1.25;0.25;;;11.30;99.90;;;;;;4959589;28;20129;-86
2022/10/19 00:58:07;;;;;;;3.10;0.20;;;11.60;99.90;;;;;;4976695;28;20039;-87
2022/10/19 01:00:33;;;;;;;1.63;0.20;;;11.30;99.90;;;;;;4975799;28;20059;-85
2022/10/19 01:03:00;;;;;;;2.22;0.20;;;11.30;99.90;;;;;;4976423;28;20105;-85
2022/10/19 01:05:27;;;;;;;2.28;0.20;;;11.40;99.90;;;;;;4976130;28;20047;-87
2022/10/19 01:07:53;;;;;;;2.05;0.30;;;11.30;99.90;;;;;;4976664;28;20443;-86
2022/10/19 01:10:29;;;;;;;2.75;0.20;;;11.40;99.90;;;;;;4976207;28;20515;-84
2022/10/19 01:13:06;;;;;;;0.73;0.10;;;11.50;99.90;;;;;;4958849;28;20051;-85
2022/10/19 01:16:13;;;;;;;2.72;0.47;;;11.40;99.90;;;;;;4958505;28;20051;-85
2022/10/19 01:19:17;;;;;;;1.27;0.20;;;11.40;99.90;;;;;;4959004;28;20059;-86
2022/10/19 01:21:49;;;;;;;1.67;0.20;;;11.70;99.90;;;;;;4935529;28;20142;-85
2022/10/19 01:24:35;;;;;;;2.63;0.20;;;11.50;99.90;;;;;;4935727;29;20040;-85
2022/10/19 01:27:22;;;;;;;0.88;0.20;;;11.50;99.90;;;;;;4935243;29;20469;-84
2022/10/19 01:30:02;;;;;;;0.60;0.20;;;11.40;99.90;;;;;;4918981;29;20138;-84
2022/10/19 01:32:36;;;;;;;2.00;0.20;;;11.50;99.90;;;;;;4919538;29;20043;-84
2022/10/19 01:35:12;;;;;;;2.85;0.17;;;11.50;99.90;;;;;;4919590;29;20058;-86
2022/10/19 01:37:48;;;;;;;5.95;0.40;;;11.50;99.90;;;;;;4919381;29;20051;-84
2022/10/19 01:40:53;;;;;;;1.80;0.20;;;11.50;99.90;;;;;;4935704;29;20440;-85
2022/10/19 01:43:53;;;;;;;1.15;0.10;;;11.60;99.90;;;;;;4857474;29;20472;-85
2022/10/19 01:46:27;;;;;;;0.88;0.20;;;11.60;99.90;;;;;;4837284;29;20061;-84
2022/10/19 01:49:16;;;;;;;3.70;0.20;;;11.60;99.90;;;;;;4859729;29;20472;-84
2022/10/19 01:51:47;;;;;;;0.68;0.17;;;11.60;99.90;;;;;;4844521;29;20488;-85
2022/10/19 01:54:15;;;;;;;3.33;0.32;;;11.80;99.90;;;;;;4854099;29;20128;-85
2022/10/19 01:56:44;;;;;;;3.22;0.30;;;11.70;99.90;;;;;;4860067;29;20518;-85
2022/10/19 01:59:11;;;;;;;0.98;0.20;;;12.70;99.90;;;;;;4874649;29;20049;-85
2022/10/19 02:01:42;;;;;;;0.80;0.20;;;11.60;99.90;;;;;;4878199;29;20045;-84
2022/10/19 02:04:11;;;;;;;1.38;0.17;;;12.50;99.90;;;;;;4864110;29;20080;-84
2022/10/19 02:06:37;;;;;;;0.30;0.13;;;11.60;99.90;;;;;;4878201;29;20186;-84
2022/10/19 02:09:02;;;;;;;1.55;0.10;;;11.60;99.90;;;;;;4877650;29;20049;-84
2022/10/19 02:11:30;;;;;;;0.43;0.00;;;11.60;99.90;;;;;;4877040;29;20060;-84
2022/10/19 02:14:01;;;;;;;0.30;0.10;;;12.20;99.90;;;;;;4872430;29;20603;-84
2022/10/19 02:16:37;;;;;;;2.38;0.30;;;12.20;99.90;;;;;;4862663;29;20097;-85
2022/10/19 02:19:07;;;;;;;0.77;0.15;;;11.50;99.90;;;;;;4907352;28;20569;-84
2022/10/19 02:21:33;;;;;;;0.43;0.13;;;11.50;99.90;;;;;;4958354;28;20041;-84
2022/10/19 02:23:59;;;;;;;2.67;0.20;;;12.00;99.90;;;;;;4957379;28;20126;-84
2022/10/19 02:26:26;;;;;;;1.85;0.20;;;12.30;99.90;;;;;;4975559;28;20046;-85
2022/10/19 02:28:54;;;;;;;2.95;0.20;;;11.50;99.90;;;;;;4975223;28;20038;-85
2022/10/19 02:31:20;;;;;;;1.73;0.20;;;11.60;99.90;;;;;;4968000;28;20039;-84
2022/10/19 02:33:46;;;;;;;2.60;0.75;;;11.40;99.90;;;;;;4974526;28;20499;-86
2022/10/19 02:36:12;;;;;;;1.30;0.28;;;11.50;99.90;;;;;;4975315;28;20053;-84
2022/10/19 02:38:40;;;;;;;1.60;0.20;;;11.90;99.90;;;;;;4975029;28;20046;-85
2022/10/19 02:41:12;;;;;;;1.38;0.30;;;11.40;99.90;;;;;;4975255;28;20051;-84
2022/10/19 02:43:41;;;;;;;1.75;0.32;;;11.40;99.90;;;;;;4955894;28;20405;-84
2022/10/19 02:46:17;;;;;;;2.08;0.30;;;11.30;99.90;;;;;;4957639;28;20399;-84
2022/10/19 02:48:43;;;;;;;2.55;0.20;;;11.30;99.90;;;;;;4969077;28;20522;-84
2022/10/19 02:51:30;;;;;;;0.65;0.20;;;11.30;99.90;;;;;;4974377;28;20116;-85
2022/10/19 02:53:56;;;;;;;0.22;0.10;;;11.70;99.90;;;;;;4974892;28;20399;-85
2022/10/19 02:56:22;;;;;;;0.70;0.20;;;11.20;99.90;;;;;;4974512;28;20039;-85
2022/10/19 02:58:48;;;;;;;2.47;0.30;;;11.20;99.90;;;;;;4957229;28;20491;-85
2022/10/19 03:01:14;;;;;;;0.73;0.15;;;11.30;99.90;;;;;;4973562;28;20125;-85
2022/10/19 03:03:39;;;;;;;2.50;0.40;;;11.40;99.90;;;;;;4973607;28;20129;-85
2022/10/19 03:06:05;;;;;;;7.13;0.75;;;11.50;99.90;;;;;;4957240;28;20062;-85
2022/10/19 03:08:31;;;;;;;1.70;0.30;;;11.80;99.90;;;;;;4956922;28;21530;-85
2022/10/19 03:11:00;;;;;;;2.05;0.22;;;11.40;99.90;;;;;;4974385;28;20049;-85
2022/10/19 03:13:26;;;;;;;1.23;0.28;;;12.00;99.90;;;;;;4973128;28;20054;-85
2022/10/19 03:15:51;;;;;;;2.92;0.28;;;11.40;99.90;;;;;;4956707;28;20133;-85
2022/10/19 03:18:17;;;;;;;2.38;0.30;;;11.10;99.90;;;;;;4973866;28;20094;-85
2022/10/19 03:20:43;;;;;;;2.05;0.22;;;11.60;99.90;;;;;;4974258;28;20043;-85
2022/10/19 03:23:08;;;;;;;0.80;0.20;;;11.70;99.90;;;;;;4973838;28;20122;-85
2022/10/19 03:25:34;;;;;;;1.83;0.20;;;11.00;99.90;;;;;;4974163;28;20450;-85
2022/10/19 03:28:00;;;;;;;1.30;0.28;;;11.00;99.90;;;;;;4973727;28;20035;-84
2022/10/19 03:30:25;;;;;;;1.85;0.30;;;11.70;99.90;;;;;;4973508;28;20181;-86
2022/10/19 03:32:51;;;;;;;0.57;0.10;;;11.40;99.90;;;;;;4974333;28;20063;-85
2022/10/19 03:35:17;;;;;;;1.85;0.40;;;10.90;99.90;;;;;;4974170;28;20042;-85
2022/10/19 03:37:43;;;;;;;1.95;0.25;;;11.80;99.90;;;;;;4956886;28;20109;-85
2022/10/19 03:40:09;;;;;;;1.17;0.22;;;11.40;99.90;;;;;;4974117;28;20499;-85
2022/10/19 03:42:34;;;;;;;1.60;0.32;;;10.70;99.90;;;;;;4973220;28;20043;-85
2022/10/19 03:45:00;;;;;;;3.78;0.40;;;10.70;99.90;;;;;;4973237;28;20178;-86
2022/10/19 03:47:26;;;;;;;2.63;0.50;;;10.90;99.90;;;;;;4973389;28;20104;-85
2022/10/19 03:49:51;;;;;;;0.60;0.20;;;10.90;99.90;;;;;;4956254;28;20034;-85
2022/10/19 03:52:18;;;;;;;1.30;0.40;;;10.60;99.90;;;;;;4973669;28;20599;-86
2022/10/19 03:54:45;;;;;;;1.33;0.70;;;10.50;99.90;;;;;;4972828;28;20046;-85
2022/10/19 03:57:11;;;;;;;1.75;0.20;;;10.30;99.90;;;;;;4956223;28;20051;-86
2022/10/19 03:59:37;;;;;;;1.40;0.15;;;10.50;99.90;;;;;;4955872;28;20077;-86
2022/10/19 04:02:03;;;;;;;1.27;0.20;;;10.70;99.90;;;;;;4956523;28;20391;-85
2022/10/19 04:04:29;;;;;;;0.45;0.20;;;10.60;99.90;;;;;;4973049;28;20134;-86
2022/10/19 04:06:54;;;;;;;1.38;0.30;;;11.10;99.90;;;;;;4973650;28;20041;-86
2022/10/19 04:09:21;;;;;;;1.35;0.20;;;10.40;99.90;;;;;;4972823;28;20042;-85
2022/10/19 04:11:48;;;;;;;0.65;0.20;;;10.30;99.90;;;;;;4973113;28;20058;-85
2022/10/19 04:14:15;;;;;;;1.13;0.20;;;10.30;99.90;;;;;;4973402;28;20041;-87
2022/10/19 04:16:41;;;;;;;1.60;0.20;;;11.10;99.90;;;;;;4973544;28;20494;-85
2022/10/19 04:19:07;;;;;;;2.22;0.32;;;10.30;99.90;;;;;;4973499;28;20070;-86
2022/10/19 04:21:35;;;;;;;3.17;0.38;;;10.90;99.90;;;;;;4955643;28;20049;-85
2022/10/19 04:24:04;;;;;;;1.42;0.20;;;10.60;99.90;;;;;;4973047;28;20089;-86
2022/10/19 04:26:31;;;;;;;1.98;0.22;;;10.20;99.90;;;;;;4973524;28;20078;-86
2022/10/19 04:28:57;;;;;;;1.92;0.30;;;10.30;99.90;;;;;;4973297;28;20043;-86
2022/10/19 04:31:23;;;;;;;3.13;0.63;;;10.20;99.90;;;;;;4973653;28;20046;-86
2022/10/19 04:33:49;;;;;;;3.70;0.50;;;10.70;99.90;;;;;;4974414;28;20439;-86
2022/10/19 04:36:15;;;;;;;2.65;0.30;;;9.80;99.90;;;;;;4980730;28;20039;-89
2022/10/19 04:38:41;;;;;;;2.63;0.30;;;10.30;99.90;;;;;;4987325;28;20050;-85
2022/10/19 04:41:15;;;;;;;2.45;0.30;;;10.30;99.90;;;;;;4984915;28;20043;-85
2022/10/19 04:43:41;;;;;;;2.20;0.20;;;10.30;99.90;;;;;;4982993;28;20082;-86
2022/10/19 04:46:12;;;;;;;2.45;0.30;;;10.30;99.90;;;;;;4985376;28;20050;-85
2022/10/19 04:48:39;;;;;;;3.42;0.30;;;10.30;99.90;;;;;;4958852;28;20109;-85
2022/10/19 04:51:05;;;;;;;1.73;0.25;;;9.80;99.90;;;;;;4973361;28;20031;-86
2022/10/19 04:53:32;;;;;;;1.75;0.20;;;10.30;99.90;;;;;;4972942;28;20394;-85
2022/10/19 04:55:58;;;;;;;1.35;0.17;;;10.30;99.90;;;;;;4972785;28;20519;-87
2022/10/19 04:58:24;;;;;;;1.52;0.20;;;10.60;99.90;;;;;;4972787;28;20438;-87
2022/10/19 05:00:50;;;;;;;2.88;0.68;;;11.40;99.90;;;;;;4972433;28;20047;-87
2022/10/19 05:03:16;;;;;;;1.23;0.28;;;10.30;99.90;;;;;;4972661;28;20137;-86
2022/10/19 05:05:42;;;;;;;1.25;0.22;;;11.00;99.90;;;;;;4972611;28;20514;-86
2022/10/19 05:08:09;;;;;;;0.30;0.10;;;10.60;99.90;;;;;;4972727;28;20047;-86
2022/10/19 05:10:36;;;;;;;1.00;0.20;;;11.10;99.90;;;;;;4972950;28;20047;-86
2022/10/19 05:13:02;;;;;;;0.35;0.13;;;10.30;99.90;;;;;;4972019;28;20619;-86
2022/10/19 05:15:29;;;;;;;3.47;0.38;;;10.30;99.90;;;;;;4971807;28;20464;-86
2022/10/19 05:17:55;;;;;;;0.15;0.10;;;10.70;99.90;;;;;;4972770;28;20058;-87
2022/10/19 05:20:21;;;;;;;3.85;0.30;;;10.30;99.90;;;;;;4973014;28;20038;-87
2022/10/19 05:22:46;;;;;;;1.30;0.10;;;10.30;99.90;;;;;;4955495;28;20500;-86
2022/10/19 05:25:12;;;;;;;1.20;0.57;;;10.80;99.90;;;;;;4938788;28;20393;-86
2022/10/19 05:27:38;;;;;;;1.45;0.30;;;11.00;99.90;;;;;;4955574;28;20495;-88
2022/10/19 05:30:05;;;;;;;4.93;0.40;;;11.20;99.90;;;;;;4972028;28;20499;-87
2022/10/19 05:32:31;;;;;;;3.03;0.40;;;10.30;99.90;;;;;;4972517;28;20383;-87
2022/10/19 05:34:57;;;;;;;5.10;0.32;;;10.70;99.90;;;;;;4957636;28;20122;-87
2022/10/19 05:37:24;;;;;;;4.25;0.47;;;11.20;99.90;;;;;;4975958;28;20031;-86
2022/10/19 05:39:50;;;;;;;0.98;0.20;;;10.90;99.90;;;;;;4976106;28;20043;-86
2022/10/19 05:42:16;;;;;;;0.40;0.20;;;10.30;99.90;;;;;;4975102;28;20101;-89
2022/10/19 05:44:42;;;;;;;3.92;0.20;;;10.30;99.90;;;;;;4975095;28;20053;-87
2022/10/19 05:47:07;;;;;;;2.45;0.20;;;10.30;99.90;;;;;;4975324;28;20049;-87
2022/10/19 05:49:33;;;;;;;0.13;0.10;;;10.70;99.90;;;;;;4975665;28;20097;-87
2022/10/19 05:51:59;;;;;;;2.45;0.20;;;10.30;99.90;;;;;;4975436;28;20047;-87
2022/10/19 05:54:25;;;;;;;2.17;0.40;;;10.40;99.90;;;;;;4975503;28;20484;-88
2022/10/19 05:56:50;;;;;;;0.30;0.20;;;11.20;99.90;;;;;;4975822;28;20047;-87
2022/10/19 05:59:18;;;;;;;1.85;0.40;;;11.30;99.90;;;;;;4975461;28;20042;-88
2022/10/19 06:01:45;;;;;;;1.85;0.20;;;10.60;99.90;;;;;;4975359;28;20180;-88
2022/10/19 06:04:13;;;;;;;1.30;0.22;;;10.50;99.90;;;;;;4975092;28;20137;-89
2022/10/19 06:06:40;;;;;;;0.38;0.20;;;11.20;99.90;;;;;;4952107;28;20054;-89
2022/10/19 06:09:05;;;;;;;1.42;0.10;;;10.50;99.90;;;;;;4958769;28;20062;-87
2022/10/19 06:11:36;;;;;;;2.45;0.30;;;11.10;99.90;;;;;;4951321;28;20046;-91
2022/10/19 06:14:05;;;;;;;0.38;0.10;;;10.50;99.90;;;;;;4958587;28;20051;-90
2022/10/19 06:16:32;;;;;;;0.93;0.17;;;10.30;99.90;;;;;;4966112;28;20086;-88
2022/10/19 06:18:58;;;;;;;1.30;0.20;;;10.50;99.90;;;;;;4975346;28;20066;-88
2022/10/19 06:21:29;;;;;;;2.13;0.10;;;10.90;99.90;;;;;;4959140;28;20074;-87
2022/10/19 06:23:59;;;;;;;1.98;0.20;;;10.50;99.90;;;;;;4976360;28;20071;-90
2022/10/19 06:26:26;;;;;;;0.30;0.00;;;10.60;99.90;;;;;;4975643;28;20073;-85
2022/10/19 06:28:55;;;;;;;1.77;0.20;;;10.60;99.90;;;;;;4975410;28;20131;-88
2022/10/19 06:31:21;;;;;;;0.85;0.20;;;10.60;99.90;;;;;;4975060;28;20039;-88
2022/10/19 06:33:46;;;;;;;1.00;0.10;;;11.40;99.90;;;;;;4977210;28;20057;-87
2022/10/19 06:36:15;;;;;;;1.30;0.20;;;11.40;99.90;;;;;;4975027;28;20052;-86
2022/10/19 06:38:42;;;;;;;1.25;0.10;;;10.60;99.90;;;;;;4968017;28;20047;-87
2022/10/19 06:41:09;;;;;;;2.53;0.28;;;10.70;99.90;;;;;;4957927;28;20110;-88
2022/10/19 06:43:34;;;;;;;1.75;0.20;;;10.70;99.90;;;;;;4957648;28;20046;-87
2022/10/19 06:46:05;;;;;;;0.85;0.20;;;11.00;99.90;;;;;;4970300;28;20047;-87
2022/10/19 06:48:31;;;;;;;0.17;0.10;;;10.70;99.90;;;;;;4975466;28;20396;-88
2022/10/19 06:51:02;;;;;;;0.55;0.15;;;11.90;99.90;;;;;;4974276;28;20041;-85
2022/10/19 06:53:28;;;;;;;1.08;0.20;;;10.80;99.90;;;;;;4973828;28;20129;-86
2022/10/19 06:55:58;;;;;;;0.43;0.13;;;10.80;99.90;;;;;;4974844;28;20174;-87
2022/10/19 06:58:24;;;;;;;2.60;0.20;;;10.80;99.90;;;;;;4957006;28;20042;-86
2022/10/19 07:00:58;;;;;;;0.47;0.10;;;10.80;99.90;;;;;;4957135;28;20057;-88
2022/10/19 07:03:24;;;;;;;2.20;0.20;;;11.00;99.90;;;;;;4974561;28;20587;-86
2022/10/19 07:05:55;;;;;;;3.17;0.15;;;10.90;99.90;;;;;;4974516;28;20034;-89
2022/10/19 07:08:21;;;;;;;2.50;0.20;;;11.40;99.90;;;;;;4954228;28;20055;-86
2022/10/19 07:10:52;;;;;;;1.80;0.10;;;11.90;99.90;;;;;;4973875;28;20034;-86
2022/10/19 07:13:18;;;;;;;0.30;0.00;;;11.80;99.90;;;;;;4971099;28;20050;-92
2022/10/19 07:15:44;;;;;;;1.20;0.10;;;10.90;99.90;;;;;;4971329;28;20050;-86
2022/10/19 07:18:09;;;;;;;1.08;0.10;;;10.90;99.90;;;;;;4968334;28;20038;-89
2022/10/19 07:20:35;;;;;;;1.35;0.20;;;11.00;99.90;;;;;;4940147;28;20039;-90
2022/10/19 07:23:01;;;;;;;0.32;0.10;;;11.00;99.90;;;;;;4958687;28;20047;-90
2022/10/19 07:25:28;;;;;;;0.28;0.10;;;11.00;99.90;;;;;;4960584;28;20053;-86
2022/10/19 07:27:54;;;;;;;0.50;0.10;;;11.50;99.90;;;;;;4951480;28;20046;-90
2022/10/19 07:30:20;;;;;;;2.17;0.20;;;11.90;99.90;;;;;;4975189;28;20563;-87
2022/10/19 07:36:53;;;;;;;2.65;0.20;;;11.30;99.90;;;;;;4974958;28;20137;-89
2022/10/19 07:39:20;;;;;;;3.20;0.30;;;11.40;99.90;;;;;;4974993;28;20097;-86
2022/10/19 07:41:46;;;;;;;1.40;0.30;;;11.40;99.90;;;;;;4974649;28;20051;-86
2022/10/19 07:44:12;;;;;;;2.38;0.40;;;11.50;99.90;;;;;;4957281;28;20038;-86
2022/10/19 07:46:39;;;;;;;4.45;0.70;;;11.70;99.90;;;;;;4957558;28;20058;-86
2022/10/19 07:49:11;;;;;;;0.75;0.15;;;11.60;99.90;;;;;;4975424;28;20043;-86
2022/10/19 07:51:37;;;;;;;1.38;0.30;;;11.70;99.90;;;;;;4974833;28;20046;-86
2022/10/19 07:54:03;;;;;;;1.38;0.43;;;11.40;99.90;;;;;;4975027;28;20046;-86
2022/10/19 07:56:29;;;;;;;0.35;0.10;;;11.80;99.90;;;;;;4974532;28;20051;-85
2022/10/19 07:58:57;;;;;;;2.28;0.30;;;11.70;99.90;;;;;;4957112;28;20047;-85
2022/10/19 08:01:36;;;;;;;1.75;0.20;;;11.80;99.90;;;;;;4974322;28;20062;-85
2022/10/19 08:04:02;;;;;;;2.38;0.15;;;11.80;99.90;;;;;;4974525;28;20051;-87
2022/10/19 08:06:31;;;;;;;1.50;0.20;;;12.10;99.90;;;;;;4974478;28;20427;-85
2022/10/19 08:08:57;;;;;;;2.72;0.40;;;11.90;99.90;;;;;;4974327;28;20086;-85
2022/10/19 08:11:26;;;;;;;0.93;0.20;;;12.00;99.90;;;;;;4956900;28;20042;-86
2022/10/19 08:13:52;;;;;;;1.02;0.20;;;12.00;99.90;;;;;;4973587;28;20499;-85
2022/10/19 08:16:36;;;;;;;1.23;0.10;;;11.90;99.90;;;;;;4957235;28;20130;-86
2022/10/19 08:19:09;;;;;;;2.10;0.22;;;12.50;99.90;;;;;;4974693;28;20045;-86
2022/10/19 08:21:41;;;;;;;0.88;0.15;;;11.90;99.90;;;;;;4974181;28;20115;-86
2022/10/19 08:24:07;;;;;;;1.08;0.63;;;12.30;99.90;;;;;;4974293;28;20047;-89
2022/10/19 08:26:36;;;;;;;4.47;0.73;;;12.20;99.90;;;;;;4956966;28;20459;-85
2022/10/19 08:29:20;;;;;;;3.20;0.25;;;12.60;99.90;;;;;;4974220;28;20082;-85
2022/10/19 08:31:48;;;;;;;6.13;0.25;;;12.40;99.90;;;;;;4956737;28;20097;-86
2022/10/19 08:34:14;;;;;;;1.70;0.30;;;12.40;99.90;;;;;;4956999;28;20423;-85
2022/10/19 08:36:40;;;;;;;1.90;0.20;;;12.40;99.90;;;;;;4972800;28;20047;-87
2022/10/19 08:39:07;;;;;;;0.82;0.22;;;12.50;99.90;;;;;;4956524;28;20407;-86
2022/10/19 08:41:40;;;;;;;2.20;0.10;;;12.50;99.90;;;;;;4974169;28;20392;-86
2022/10/19 08:44:39;;;;;;;1.45;0.30;;;12.50;99.90;;;;;;4974140;28;20069;-87
2022/10/19 08:47:30;;;;;;;0.57;0.20;;;12.60;99.90;;;;;;4972881;28;20043;-86
2022/10/19 08:49:57;;;;;;;1.48;0.20;;;12.70;99.90;;;;;;4956550;28;20051;-87
2022/10/19 08:52:32;;;;;;;3.95;0.15;;;12.90;99.90;;;;;;4956303;28;20047;-88
2022/10/19 08:55:01;;;;;;;2.50;0.20;;;12.80;99.90;;;;;;4956508;28;20046;-85
2022/10/19 08:57:36;;;;;;;4.05;0.32;;;12.90;99.90;;;;;;4973773;28;20055;-85
2022/10/19 09:00:34;;;;;;;2.63;0.20;;;12.90;99.90;;;;;;4973570;28;20047;-86
2022/10/19 09:03:04;;;;;;;2.25;0.20;;;13.00;99.90;;;;;;4954408;29;20047;-87
2022/10/19 09:05:50;;;;;;;0.57;0.20;;;13.00;99.90;;;;;;4954449;29;20552;-85
2022/10/19 09:08:18;;;;;;;3.60;0.32;;;13.10;99.90;;;;;;4938109;29;20051;-86
2022/10/19 09:10:49;;;;;;;5.57;0.30;;;13.10;99.90;;;;;;4941377;29;20058;-86
2022/10/19 09:13:43;;;;;;;5.50;0.52;;;13.30;99.90;;;;;;4958902;29;20043;-89
2022/10/19 09:16:14;;;;;;;3.97;0.30;;;13.10;99.90;;;;;;4958687;29;20055;-89
2022/10/19 09:18:41;;;;;;;3.05;0.63;;;13.10;99.90;;;;;;4957955;29;20035;-90
2022/10/19 09:21:39;;;;;;;2.83;0.30;;;13.10;99.90;;;;;;4957970;29;20047;-90
2022/10/19 09:24:14;;;;;;;1.65;0.28;;;13.20;99.90;;;;;;4940750;29;20122;-89
2022/10/19 09:26:52;;;;;;;3.72;0.40;;;13.40;99.90;;;;;;4957719;29;20050;-90
2022/10/19 09:29:43;;;;;;;5.00;0.30;;;13.20;99.90;;;;;;4957717;29;20055;-89
2022/10/19 09:32:15;;;;;;;1.35;0.30;;;13.30;99.90;;;;;;4958110;29;20051;-86
2022/10/19 09:38:26;;;;;;;2.15;0.30;;;13.20;99.90;;;;;;4957648;29;20129;-90
2022/10/19 09:40:51;;;;;;;3.60;0.30;;;13.20;99.90;;;;;;4940333;29;20094;-86
2022/10/19 09:43:19;;;;;;;3.30;0.40;;;13.20;99.90;;;;;;4957703;29;20055;-88
2022/10/19 09:45:55;;;;;;;4.28;0.20;;;13.20;99.90;;;;;;4940484;29;20089;-89
2022/10/19 09:48:39;;;;;;;8.30;0.32;;;13.20;99.90;;;;;;4940293;29;20039;-87
2022/10/19 09:51:12;;;;;;;2.35;0.40;;;13.20;99.90;;;;;;4957618;29;20051;-86
2022/10/19 09:53:53;;;;;;;2.95;0.20;;;13.30;99.90;;;;;;4957495;29;20491;-86
2022/10/19 09:56:26;;;;;;;2.97;0.22;;;13.30;99.90;;;;;;4957339;29;20463;-88
2022/10/19 09:58:57;;;;;;;0.80;0.20;;;13.30;99.90;;;;;;4957420;29;20043;-89
2022/10/19 10:01:32;;;;;;;2.38;0.30;;;13.30;99.90;;;;;;4950224;28;20141;-89
2022/10/19 10:04:06;;;;;;;2.22;0.30;;;13.40;99.90;;;;;;4977676;28;20054;-92
2022/10/19 10:06:33;;;;;;;3.08;0.30;;;13.40;99.90;;;;;;4959316;28;20476;-89
2022/10/19 10:08:58;;;;;;;2.40;0.30;;;13.60;99.90;;;;;;4976657;28;20137;-91
2022/10/19 10:11:31;;;;;;;2.67;0.40;;;13.60;99.90;;;;;;4943434;28;20066;-90
2022/10/19 10:14:02;;;;;;;3.05;0.30;;;13.70;99.90;;;;;;4959202;28;20050;-89
2022/10/19 10:16:29;;;;;;;2.17;0.40;;;13.70;99.90;;;;;;4978412;28;20054;-92
2022/10/19 10:19:07;;;;;;;0.82;0.22;;;13.80;99.90;;;;;;4981004;28;20503;-88
2022/10/19 10:21:54;;;;;;;0.93;0.20;;;13.80;99.90;;;;;;4983992;28;20387;-88
2022/10/19 10:24:26;;;;;;;1.38;0.30;;;13.80;99.90;;;;;;4970220;28;20039;-86
2022/10/19 10:26:55;;;;;;;3.15;0.25;;;13.90;99.90;;;;;;4975228;28;20109;-87
2022/10/19 10:29:25;;;;;;;2.35;0.40;;;14.20;99.90;;;;;;4975338;28;20376;-90
2022/10/19 10:31:58;;;;;;;4.90;0.30;;;14.00;99.90;;;;;;4958095;28;20380;-87
2022/10/19 10:34:33;;;;;;;4.22;0.32;;;14.00;99.90;;;;;;4975422;28;20047;-87
2022/10/19 10:37:00;;;;;;;6.03;0.30;;;14.00;99.90;;;;;;4974964;28;20035;-88
2022/10/19 10:39:28;;;;;;;3.55;0.40;;;14.10;99.90;;;;;;4975220;28;20047;-91
2022/10/19 10:41:54;;;;;;;3.88;0.50;;;14.10;99.90;;;;;;4975006;28;20395;-88
2022/10/19 10:44:25;;;;;;;5.78;0.32;;;14.10;99.90;;;;;;4975160;28;20045;-87
2022/10/19 10:47:00;;;;;;;3.38;0.40;;;14.10;99.90;;;;;;4974651;28;20117;-87
2022/10/19 10:49:27;;;;;;;3.80;0.52;;;14.10;99.90;;;;;;4974709;28;20043;-89
2022/10/19 10:51:56;;;;;;;2.60;0.32;;;14.00;99.90;;;;;;4974396;28;20097;-88
2022/10/19 10:54:28;;;;;;;3.60;0.68;;;14.10;99.90;;;;;;4975567;28;20093;-86
2022/10/19 10:56:57;;;;;;;3.63;0.20;;;14.20;99.90;;;;;;4955274;28;20047;-87
2022/10/19 10:59:32;;;;;;;2.67;0.30;;;14.10;99.90;;;;;;4974533;28;20060;-87
2022/10/19 11:02:02;;;;;;;0.77;0.13;;;14.10;99.90;;;;;;4956852;28;20065;-88
2022/10/19 11:04:34;;;;;;;3.08;0.20;;;14.10;99.90;;;;;;4974737;28;20306;-87
2022/10/19 11:07:20;;;;;;;3.53;0.32;;;14.10;99.90;;;;;;4957021;28;20043;-85
2022/10/19 11:09:51;;;;;;;;;;;14.30;99.90;;;;;;4970735;28;20165;-85
2022/10/19 11:12:22;;;;;;;1.65;0.20;;;14.20;99.90;;;;;;4970489;28;19921;-86
2022/10/19 11:15:10;;;;;;;1.98;0.10;;;14.20;99.90;;;;;;4970638;28;20042;-87
2022/10/19 11:17:40;;;;;;;2.35;0.20;;;14.20;99.90;;;;;;4969201;28;20121;-87
2022/10/19 11:20:09;;;;;;;2.60;0.20;;;14.20;99.90;;;;;;4969738;28;20042;-87
2022/10/19 11:22:57;;;;;;;4.45;0.30;;;14.20;99.90;;;;;;4967780;28;20045;-90
2022/10/19 11:25:42;;;;;;;2.60;0.40;;;14.20;99.90;;;;;;4966333;28;20514;-89
2022/10/19 11:28:43;;;;;;;4.57;0.30;;;14.20;99.90;;;;;;4954238;28;20047;-92
2022/10/19 11:31:21;;;;;;;2.53;0.30;;;14.20;99.90;;;;;;4947376;23;20374;-88
2022/10/19 11:33:55;;;;;;;1.80;0.20;;;14.20;99.90;;;;;;4933939;29;20071;-91
2022/10/19 11:36:33;;;;;;;1.77;0.35;;;14.20;99.90;;;;;;4936733;29;20143;-90
2022/10/19 11:39:37;;;;;;;2.28;0.55;;;14.20;99.90;;;;;;4935905;29;20580;-89
2022/10/19 11:42:44;;;;;;;2.00;0.40;;;14.20;99.90;;;;;;4909804;29;20044;-89
2022/10/19 11:45:46;;;;;;;;;;;;;;;;;;;;;
2022/10/19 11:48:25;;;;;;;0.63;0.20;;;14.20;99.90;;;;;;4899058;29;20056;-90
2022/10/19 11:51:24;;;;;;;1.65;0.30;;;14.30;99.90;;;;;;4895264;29;20067;-92
2022/10/19 11:54:08;;;;;;;1.25;0.20;;;14.20;99.90;;;;;;4901479;29;20060;-88
2022/10/19 11:59:40;;;;;;;2.25;0.30;;;14.30;99.90;;;;;;4984286;28;20105;-92
2022/10/19 12:02:12;;;;;;;3.08;0.30;;;14.30;99.90;;;;;;4972542;28;20050;-86
2022/10/19 12:04:43;;;;;;;2.20;0.63;;;14.30;99.90;;;;;;4969902;28;20052;-91
2022/10/19 12:07:26;;;;;;;1.08;0.30;;;14.30;99.90;;;;;;4989013;28;20061;-85
2022/10/19 12:10:41;;;;;;;1.58;0.40;;;14.20;99.90;;;;;;4967797;28;20053;-89
2022/10/19 12:13:14;;;;;;;1.80;0.30;;;14.30;99.90;;;;;;4982132;28;20064;-88
2022/10/19 12:15:48;;;;;;;2.53;0.35;;;14.20;99.90;;;;;;4981858;28;20057;-87
2022/10/19 12:18:40;;;;;;;2.70;0.20;;;14.20;99.90;;;;;;4968057;28;20140;-86
2022/10/19 12:21:37;;;;;;;3.90;0.30;;;14.20;99.90;;;;;;4987496;28;20046;-87
2022/10/19 12:24:05;;;;;;;;;;;14.20;99.90;;;;;;4934444;29;20058;-84
2022/10/19 12:26:34;;;;;;;1.20;0.20;;;14.30;99.90;;;;;;4947356;28;19957;-85
2022/10/19 12:29:05;;;;;;;4.65;0.40;;;14.50;99.90;;;;;;4946208;28;20055;-90
2022/10/19 12:31:32;;;;;;;2.53;0.30;;;14.50;99.90;;;;;;4931685;28;20086;-90
2022/10/19 12:34:21;;;;;;;0.68;0.10;;;14.50;99.90;;;;;;4935106;29;20074;-89
2022/10/19 12:36:53;;;;;;;3.97;0.75;;;14.50;99.90;;;;;;4926117;29;20816;-86
2022/10/19 12:39:26;;;;;;;1.75;0.40;;;14.30;99.90;;;;;;4928291;28;20051;-91
2022/10/19 12:41:52;;;;;;;0.30;0.20;;;14.30;99.90;;;;;;4948750;28;20141;-89
2022/10/19 12:44:36;;;;;;;0.30;0.20;;;14.30;99.90;;;;;;4954192;28;20171;-89
2022/10/19 12:47:21;;;;;;;1.55;0.47;;;14.20;99.90;;;;;;4935091;29;20051;-88
2022/10/19 12:49:51;;;;;;;1.05;0.30;;;14.20;99.90;;;;;;4936567;29;20099;-88
2022/10/19 12:52:58;;;;;;;1.63;0.30;;;14.20;99.90;;;;;;4952180;28;20125;-90
2022/10/19 12:55:33;;;;;;;1.90;0.60;;;14.10;99.90;;;;;;4930004;28;20058;-87
2022/10/19 12:58:20;;;;;;;0.70;0.20;;;14.10;99.90;;;;;;4943658;28;20062;-88
2022/10/19 13:01:01;;;;;;;1.38;0.40;;;14.20;99.90;;;;;;4947771;28;20117;-88
2022/10/19 13:03:32;;;;;;;1.27;0.50;;;14.20;99.90;;;;;;4955691;28;20055;-86
2022/10/19 13:06:12;;;;;;;1.10;0.45;;;14.70;99.90;;;;;;4958656;28;20042;-91
2022/10/19 13:08:44;;;;;;;0.85;0.30;;;14.10;99.90;;;;;;4969697;28;20064;-91
2022/10/19 13:11:14;;;;;;;0.75;0.35;;;14.20;99.90;;;;;;4951792;28;20070;-91
2022/10/19 13:14:03;;;;;;;1.70;0.40;;;14.20;99.90;;;;;;4952212;28;20059;-89
2022/10/19 13:17:01;;;;;;;2.00;0.52;;;14.30;99.90;;;;;;4961320;28;20453;-88
2022/10/19 13:19:33;;;;;;;1.65;0.30;;;14.30;99.90;;;;;;4885769;29;20556;-90
2022/10/19 13:21:58;;;;;;;7.32;1.48;;;14.60;99.90;;;;;;4898978;29;20084;-89